createdAt,value
2023-02-24T00:03:31.438Z,93.11
2023-02-24T00:09:07.980Z,93.25
2023-02-24T00:15:00.187Z,93.30
2023-02-24T00:20:43.424Z,93.49
2023-02-24T00:26:46.821Z,93.37
2023-02-24T00:32:44.217Z,93.21
2023-02-24T00:38:47.646Z,92.97
2023-02-24T00:44:51.109Z,93.12
2023-02-24T00:50:34.820Z,93.08
2023-02-24T00:56:41.170Z,92.43
2023-02-24T01:02:44.550Z,92.03
2023-02-24T01:08:42.104Z,91.61
2023-02-24T01:14:45.424Z,91.08
2023-02-24T01:20:49.018Z,89.95
2023-02-24T01:26:32.344Z,89.99
2023-02-24T01:32:29.245Z,88.33
2023-02-24T01:38:32.692Z,87.21
2023-02-24T01:44:36.136Z,85.22
2023-02-24T01:50:31.915Z,83.62
2023-02-24T01:56:35.624Z,83.90
2023-02-24T02:02:39.170Z,83.69
2023-02-24T02:08:42.747Z,83.76
2023-02-24T02:14:46.153Z,83.87
2023-02-24T02:20:48.098Z,84.05
2023-02-24T02:27:00.240Z,83.94
2023-02-24T02:33:02.392Z,83.52
2023-02-24T02:39:11.052Z,83.50
2023-02-24T02:45:26.420Z,83.75
2023-02-24T02:51:38.940Z,83.52
2023-02-24T02:57:06.640Z,82.82
2023-02-24T03:03:09.973Z,82.28
2023-02-24T03:09:13.798Z,82.01
2023-02-24T03:15:17.251Z,82.11
2023-02-24T03:21:21.032Z,81.70
2023-02-24T03:27:30.463Z,81.46
2023-02-24T03:33:33.961Z,81.36
2023-02-24T03:39:30.268Z,81.25
2023-02-24T03:45:33.743Z,81.27
2023-02-24T03:51:32.433Z,81.39
2023-02-24T03:57:38.632Z,81.37
2023-02-24T04:03:50.240Z,81.37
2023-02-24T04:10:18.295Z,81.26
2023-02-24T04:16:21.700Z,81.12
2023-02-24T04:22:25.171Z,81.32
2023-02-24T04:28:28.552Z,81.42
2023-02-24T04:34:14.674Z,81.37
2023-02-24T04:40:18.247Z,81.46
2023-02-24T04:46:23.372Z,80.99
2023-02-24T04:52:26.891Z,81.31
2023-02-24T04:58:09.027Z,81.14
2023-02-24T05:03:43.330Z,81.36
2023-02-24T05:09:35.478Z,81.19
2023-02-24T05:15:38.874Z,81.11
2023-02-24T05:21:57.224Z,81.02
2023-02-24T05:27:59.536Z,80.88
2023-02-24T05:34:02.971Z,80.70
2023-02-24T05:40:06.457Z,80.35
2023-02-24T05:46:09.894Z,80.36
2023-02-24T05:52:16.038Z,80.36
2023-02-24T05:58:19.544Z,80.42
2023-02-24T06:04:28.738Z,80.50
2023-02-24T06:10:32.426Z,80.48
2023-02-24T06:16:35.879Z,80.23
2023-02-24T06:22:42.111Z,80.26
2023-02-24T06:28:45.592Z,80.20
2023-02-24T06:34:49.099Z,80.09
2023-02-24T06:40:52.597Z,80.22
2023-02-24T06:46:56.009Z,80.18
2023-02-24T06:52:59.479Z,80.13
2023-02-24T06:59:02.890Z,80.05
2023-02-24T07:05:06.467Z,79.97
2023-02-24T07:10:55.387Z,79.77
2023-02-24T07:16:57.698Z,79.16
2023-02-24T07:23:01.109Z,79.04
2023-02-24T07:29:04.669Z,78.25
2023-02-24T07:35:08.120Z,78.75
2023-02-24T07:41:14.648Z,78.68
2023-02-24T07:47:18.297Z,78.25
2023-02-24T07:53:21.777Z,77.57
2023-02-24T07:59:25.164Z,77.13
2023-02-24T08:05:28.665Z,76.09
2023-02-24T08:11:32.127Z,76.04
2023-02-24T08:17:35.590Z,74.82
2023-02-24T08:23:39.143Z,75.06
2023-02-24T08:29:42.639Z,74.47
2023-02-24T08:35:46.170Z,74.43
2023-02-24T08:41:52.277Z,74.08
2023-02-24T08:47:55.707Z,74.36
2023-02-24T08:53:59.140Z,74.25
2023-02-24T09:00:02.782Z,74.44
2023-02-24T09:06:06.264Z,73.92
2023-02-24T09:12:02.991Z,73.71
2023-02-24T09:18:06.662Z,72.72
2023-02-24T09:24:10.204Z,72.92
2023-02-24T09:30:13.789Z,72.74
2023-02-24T09:36:23.848Z,72.35
2023-02-24T09:42:28.588Z,72.35
2023-02-24T09:48:35.153Z,73.02
2023-02-24T09:54:38.552Z,72.03
2023-02-24T10:00:45.133Z,71.92
2023-02-24T10:06:57.366Z,72.04
2023-02-24T10:13:09.998Z,71.04
2023-02-24T10:19:22.968Z,70.80
2023-02-24T10:25:32.593Z,71.12
2023-02-24T10:31:51.236Z,70.83
2023-02-24T10:37:54.723Z,70.48
2023-02-24T10:44:07.135Z,70.89
2023-02-24T10:50:18.167Z,70.34
2023-02-24T10:56:23.388Z,71.53
2023-02-24T11:02:27.008Z,72.94
2023-02-24T11:08:30.584Z,73.86
2023-02-24T11:14:32.636Z,75.08
2023-02-24T11:20:20.404Z,76.21
2023-02-24T11:26:23.087Z,77.41
2023-02-24T11:32:25.302Z,77.82
2023-02-24T11:37:55.994Z,78.72
2023-02-24T11:43:47.444Z,79.40
2023-02-24T11:49:42.958Z,79.89
2023-02-24T11:55:49.487Z,80.22
2023-02-24T12:01:55.768Z,80.86
2023-02-24T12:08:14.343Z,81.33
2023-02-24T12:14:21.377Z,81.53
2023-02-24T12:20:34.182Z,81.91
2023-02-24T12:26:14.146Z,82.24
2023-02-24T12:32:19.150Z,82.86
2023-02-24T12:38:34.733Z,83.41
2023-02-24T12:44:41.068Z,83.33
2023-02-24T12:50:55.619Z,83.41
2023-02-24T12:56:57.658Z,83.93
2023-02-24T13:02:47.030Z,84.39
2023-02-24T13:08:48.106Z,84.71
2023-02-24T13:14:58.884Z,85.01
2023-02-24T13:21:08.098Z,85.44
2023-02-24T13:27:11.563Z,85.61
2023-02-24T13:33:13.652Z,85.55
2023-02-24T13:39:23.393Z,85.99
2023-02-24T13:45:09.151Z,86.32
2023-02-24T13:51:11.460Z,86.83
2023-02-24T13:57:22.695Z,87.20
2023-02-24T14:02:54.676Z,87.41
2023-02-24T14:09:00.756Z,87.53
2023-02-24T14:15:04.497Z,87.80
2023-02-24T14:21:13.590Z,88.19
2023-02-24T14:26:51.376Z,88.38
2023-02-24T14:32:45.014Z,88.39
2023-02-24T14:38:47.715Z,88.52
2023-02-24T14:44:56.837Z,88.90
2023-02-24T14:50:56.496Z,88.91
2023-02-24T14:56:16.266Z,88.97
2023-02-24T15:02:19.721Z,88.95
2023-02-24T15:07:32.318Z,89.23
2023-02-24T15:13:07.314Z,89.32
2023-02-24T15:18:46.458Z,89.65
2023-02-24T15:24:24.276Z,89.69
2023-02-24T15:29:35.934Z,89.71
2023-02-24T15:34:48.923Z,90.02
2023-02-24T15:40:41.329Z,89.89
2023-02-24T15:46:46.869Z,90.08
2023-02-24T15:52:06.873Z,90.05
2023-02-24T15:57:16.936Z,90.29
2023-02-24T16:03:20.509Z,90.14
2023-02-24T16:09:22.621Z,90.43
2023-02-24T16:14:40.836Z,90.48
2023-02-24T16:20:09.132Z,90.56
2023-02-24T16:25:48.868Z,90.75
2023-02-24T16:31:16.774Z,91.40
2023-02-24T16:36:44.723Z,91.28
2023-02-24T16:42:16.384Z,91.26
2023-02-24T16:48:21.611Z,91.44
2023-02-24T16:54:02.480Z,91.57
2023-02-24T16:59:15.654Z,91.54
2023-02-24T17:04:57.697Z,91.57
2023-02-24T17:10:48.100Z,91.96
2023-02-24T17:16:51.987Z,91.81
2023-02-24T17:22:55.223Z,91.76
2023-02-24T17:28:58.788Z,92.13
2023-02-24T17:35:01.000Z,92.07
2023-02-24T17:41:03.793Z,92.33
2023-02-24T17:46:46.952Z,92.32
2023-02-24T17:52:50.482Z,92.68
2023-02-24T17:58:53.845Z,92.97
2023-02-24T18:04:57.394Z,92.90
2023-02-24T18:11:00.920Z,92.83
2023-02-24T18:17:04.421Z,92.77
2023-02-24T18:23:07.940Z,92.74
2023-02-24T18:29:11.667Z,92.82
2023-02-24T18:35:15.152Z,92.86
2023-02-24T18:41:18.818Z,93.02
2023-02-24T18:47:15.272Z,92.97
2023-02-24T18:53:18.789Z,93.10
2023-02-24T18:59:20.924Z,92.91
2023-02-24T19:05:27.433Z,93.13
2023-02-24T19:11:37.822Z,93.23
2023-02-24T19:17:41.215Z,93.13
2023-02-24T19:23:44.862Z,92.95
2023-02-24T19:29:47.980Z,92.99
2023-02-24T19:35:53.273Z,92.95
2023-02-24T19:41:51.873Z,93.06
2023-02-24T19:47:48.125Z,93.21
2023-02-24T19:53:51.578Z,93.39
2023-02-24T19:59:55.071Z,93.50
2023-02-24T20:05:58.686Z,93.77
2023-02-24T20:12:01.815Z,93.78
2023-02-24T20:18:05.983Z,94.16
2023-02-24T20:24:09.345Z,94.17
2023-02-24T20:30:12.766Z,94.11
2023-02-24T20:35:57.252Z,94.25
2023-02-24T20:42:00.698Z,94.19
2023-02-24T20:48:04.126Z,94.52
2023-02-24T20:54:07.831Z,94.66
2023-02-24T21:00:10.082Z,94.80
2023-02-24T21:06:12.427Z,95.12
2023-02-24T21:12:15.995Z,95.30
2023-02-24T21:18:12.498Z,95.51
2023-02-24T21:24:16.073Z,95.54
2023-02-24T21:29:59.453Z,95.91
2023-02-24T21:36:02.959Z,95.89
2023-02-24T21:42:06.399Z,96.05
2023-02-24T21:48:12.843Z,96.10
2023-02-24T21:54:10.242Z,96.05
2023-02-24T22:00:02.341Z,95.92
2023-02-24T22:06:05.824Z,96.09
2023-02-24T22:12:03.716Z,96.24
2023-02-24T22:18:07.227Z,96.43
2023-02-24T22:24:10.848Z,96.28
2023-02-24T22:30:14.378Z,96.27
2023-02-24T22:36:17.842Z,96.33
2023-02-24T22:42:21.314Z,96.48
2023-02-24T22:48:26.586Z,96.30
2023-02-24T22:54:30.621Z,96.41
2023-02-24T23:00:27.442Z,96.51
2023-02-24T23:06:42.894Z,96.53
2023-02-24T23:12:49.639Z,96.52
2023-02-24T23:18:45.961Z,96.34
2023-02-24T23:24:49.336Z,96.11
2023-02-24T23:30:52.830Z,96.14
2023-02-24T23:36:54.849Z,96.08
2023-02-24T23:42:58.679Z,95.71
2023-02-24T23:49:02.061Z,95.89
2023-02-24T23:55:05.720Z,95.66
